Terminal Aerodrome Forecast
Issued by NWS

Home | Current Version | Previous Version | Text Only | Print | Product List | Glossary On
Versions: 1 2 3 4 5 6 7 8 9 10 11 12 13 14 15 16 17 18 19 20 21 22 23 24
000
FTUS44 KOUN 251720
TAFPNC
TAF
KPNC 251720Z 2518/2618 32011G17KT P6SM OVC013
     FM252100 33011KT P6SM OVC020
      TEMPO 2522/2524 SCT025
     FM260000 01007KT P6SM SCT025
     FM260300 03004KT P6SM SKC=

USA.gov is the U.S. government's official web portal to all federal, state and local government web resources and services.